Pagrindinis puslapis
METAR-TAF:

METAR-TAF

Oro uostai :

Aruba, Aruba

platuma: 12-30N, ilguma: 070-01W, Aukštis: 18 m

Dabartinis oras

Ataskaita buvo paskelbta 26 minutes, ne 13:00 UTC
Vėjas 16 kt iš Rytų
Temperatūra 28°C
Drėgmė 74%
Slėgis 1016 hPa
Matomumas 10 km arba daugiau
Išsisklaidę debesys ne aukštis 1800 ft

METAR: TNCA 281300Z 09016KT 9999 SCT018 28/23 Q1016 NOSIG

Laikas: 09:26 (13:26 UTC)

Prognozė

Ataskaita buvo paskelbta 2 valandos ir 11 minutes, ne 11:15 UTC
Prognozė galioja nuo 28 metu 12 UTC su 29 metu 12 UTC
Vėjas 15 kt iš Rytų
Matomumas 10 km arba daugiau
Išsisklaidę debesys ne aukštis 1800 ft
Laikinai
nuo 28 metu 12 UTC su 28 metu 16 UTC
Su prošvaistėmis ne aukštis 1400 ft

TAF: TNCA 281115Z 2812/2912 08015KT 9999 SCT018 TEMPO 2812/2816 BKN014

Orai ataskaitas ir orų prognozės (METAR, TAF).

turimą stotys yra geltonos ir raudonos taškus žemėlapyje.

Perkelti pele per norėdami pamatyti stoties vardą.

Tada spustelėkite, norėdami matyti oro stebėjimo ir prognozės.

Norėdami pakeisti žemėlapį: spustelėkite ant žalios mygtukų su juodo kryžiaus žemyn,; žalią mygtuką su brūkšneliu, jei norite nutolinti; arba žalių rodyklių gretimoms žemėlapius.


METAR-TAF: